Time;durP1;ratioP1;P1;durP2;ratioP2;P2;SDS_P1;SDS_P2;PMS_P1;PMS_P2;Temp;Humidity;BMP_temperature;BMP_pressure;BME280_temperature;BME280_humidity;BME280_pressure;Samples;Min_cycle;Max_cycle;Signal;HPM_P1;HPM_P2
2021/11/30 00:00:49;;;;;;;21.00;11.87;;;3.60;1.00;;;;;;5031992;28;20252;-59
2021/11/30 00:03:17;;;;;;;24.77;12.70;;;3.50;1.00;;;;;;5031284;28;20748;-59
2021/11/30 00:05:45;;;;;;;20.87;12.00;;;3.60;1.00;;;;;;5031849;28;20488;-57
2021/11/30 00:08:12;;;;;;;20.93;10.37;;;3.50;1.00;;;;;;5031552;28;20265;-59
2021/11/30 00:10:46;;;;;;;21.17;11.70;;;3.50;1.00;;;;;;5031649;28;20683;-60
2021/11/30 00:13:14;;;;;;;21.63;11.90;;;3.50;1.00;;;;;;5031492;28;20469;-57
2021/11/30 00:15:40;;;;;;;22.43;9.63;;;3.40;1.00;;;;;;5031712;28;21063;-57
2021/11/30 00:18:08;;;;;;;20.00;9.63;;;3.50;1.00;;;;;;5031325;28;20445;-59
2021/11/30 00:20:35;;;;;;;23.00;11.03;;;3.40;1.00;;;;;;5031818;28;20456;-60
2021/11/30 00:23:02;;;;;;;16.80;10.67;;;3.50;1.00;;;;;;5031498;28;20465;-57
2021/11/30 00:25:29;;;;;;;13.00;8.13;;;3.40;1.00;;;;;;5032192;28;20480;-59
2021/11/30 00:27:57;;;;;;;17.27;9.63;;;3.40;1.00;;;;;;5031590;28;20548;-59
2021/11/30 00:30:24;;;;;;;21.73;10.10;;;3.40;1.00;;;;;;5032012;28;20453;-57
2021/11/30 00:32:52;;;;;;;22.27;9.63;;;3.40;1.00;;;;;;5031696;28;20855;-58
2021/11/30 00:35:19;;;;;;;20.40;9.27;;;3.40;1.00;;;;;;5031513;28;20875;-55
2021/11/30 00:37:46;;;;;;;19.93;9.97;;;3.40;1.00;;;;;;5031309;28;20936;-57
2021/11/30 00:40:13;;;;;;;16.40;8.87;;;3.40;1.00;;;;;;5031503;28;20206;-56
2021/11/30 00:42:40;;;;;;;14.37;8.23;;;3.40;1.00;;;;;;5031106;28;20469;-55
2021/11/30 00:45:09;;;;;;;15.77;7.70;;;3.40;1.00;;;;;;5031276;28;20851;-58
2021/11/30 00:47:44;;;;;;;19.03;8.60;;;3.40;1.00;;;;;;5031365;28;20498;-59
2021/11/30 00:50:11;;;;;;;14.93;7.30;;;3.40;1.00;;;;;;5032724;28;20213;-56
2021/11/30 00:52:38;;;;;;;14.57;7.60;;;3.40;1.00;;;;;;5034657;28;20468;-55
2021/11/30 00:55:06;;;;;;;17.13;8.90;;;3.30;1.00;;;;;;5034642;28;20484;-54
2021/11/30 00:57:38;;;;;;;16.13;9.67;;;3.40;1.00;;;;;;5035021;28;20460;-56
2021/11/30 01:00:06;;;;;;;15.63;9.87;;;3.30;1.00;;;;;;5034791;28;20578;-54
2021/11/30 01:02:34;;;;;;;20.23;11.10;;;3.40;1.00;;;;;;5034191;28;20464;-55
2021/11/30 01:05:01;;;;;;;16.03;10.13;;;3.30;1.00;;;;;;5035053;28;20444;-56
2021/11/30 01:07:28;;;;;;;19.87;10.77;;;3.30;1.00;;;;;;5034599;28;20449;-59
2021/11/30 01:09:54;;;;;;;15.90;10.27;;;3.30;1.00;;;;;;5034867;28;20453;-58
2021/11/30 01:12:21;;;;;;;17.13;10.53;;;3.30;1.00;;;;;;5034169;28;20470;-55
2021/11/30 01:14:48;;;;;;;14.83;9.90;;;3.30;1.00;;;;;;5034263;28;20508;-59
2021/11/30 01:17:15;;;;;;;20.33;12.27;;;3.30;1.00;;;;;;5034027;28;20503;-59
2021/11/30 01:19:44;;;;;;;20.80;12.07;;;3.20;1.00;;;;;;5034496;28;20453;-60
2021/11/30 01:22:10;;;;;;;11.53;7.23;;;3.20;1.00;;;;;;5033975;28;20530;-58
2021/11/30 01:24:37;;;;;;;19.53;11.93;;;3.30;1.00;;;;;;5033750;28;20862;-56
2021/11/30 01:27:04;;;;;;;21.00;10.50;;;3.20;1.00;;;;;;5034177;28;20856;-58
2021/11/30 01:29:31;;;;;;;17.90;11.60;;;3.20;1.00;;;;;;5033896;28;20813;-56
2021/11/30 01:31:57;;;;;;;20.57;12.57;;;3.20;1.00;;;;;;5033527;28;20468;-59
2021/11/30 01:34:24;;;;;;;19.60;12.10;;;3.10;1.00;;;;;;5033942;28;20469;-56
2021/11/30 01:36:53;;;;;;;19.50;11.37;;;3.10;1.00;;;;;;5034102;28;20515;-59
2021/11/30 01:39:21;;;;;;;24.07;12.33;;;3.10;1.00;;;;;;5033889;28;20959;-57
2021/11/30 01:41:48;;;;;;;19.23;11.70;;;3.10;1.00;;;;;;5033517;28;20492;-59
2021/11/30 01:44:27;;;;;;;18.47;11.23;;;3.10;1.00;;;;;;5033517;28;20469;-57
2021/11/30 01:47:06;;;;;;;21.43;11.33;;;3.10;1.00;;;;;;5033882;28;20457;-56
2021/11/30 01:49:34;;;;;;;18.57;10.67;;;3.10;1.00;;;;;;5033871;28;20894;-57
2021/11/30 01:52:04;;;;;;;20.63;10.63;;;3.00;1.00;;;;;;5033272;28;20487;-59
2021/11/30 01:54:31;;;;;;;18.10;11.13;;;3.00;1.00;;;;;;5033446;28;20805;-59
2021/11/30 01:56:58;;;;;;;18.77;10.57;;;3.00;1.00;;;;;;5033455;28;20507;-57
2021/11/30 01:59:25;;;;;;;16.97;10.27;;;3.00;1.00;;;;;;5033618;28;20457;-58
2021/11/30 02:01:52;;;;;;;19.70;10.07;;;3.10;1.00;;;;;;5032893;28;20453;-57
2021/11/30 02:04:18;;;;;;;15.93;9.93;;;3.00;1.00;;;;;;5033117;28;20512;-55
2021/11/30 02:06:45;;;;;;;15.23;9.77;;;3.10;1.00;;;;;;5033347;28;20449;-58
2021/11/30 02:09:13;;;;;;;18.60;8.50;;;3.10;1.00;;;;;;5033191;28;20456;-54
2021/11/30 02:11:40;;;;;;;17.23;9.10;;;3.10;1.00;;;;;;5033153;28;20453;-58
2021/11/30 02:14:07;;;;;;;16.30;8.93;;;3.10;1.00;;;;;;5033127;28;20566;-56
2021/11/30 02:16:34;;;;;;;17.57;8.37;;;3.10;1.00;;;;;;5033154;28;20493;-58
2021/11/30 02:19:02;;;;;;;14.47;8.17;;;3.00;1.00;;;;;;5032973;28;20449;-55
2021/11/30 02:21:35;;;;;;;12.67;6.37;;;3.00;1.00;;;;;;5032609;28;20461;-58
2021/11/30 02:24:02;;;;;;;12.57;6.63;;;3.00;1.00;;;;;;5032873;28;21059;-59
2021/11/30 02:26:30;;;;;;;12.17;7.10;;;3.00;1.00;;;;;;5033199;28;20449;-58
2021/11/30 02:28:57;;;;;;;14.87;7.33;;;2.90;1.00;;;;;;5033129;28;20453;-57
2021/11/30 02:31:26;;;;;;;12.30;6.90;;;2.90;1.00;;;;;;5032541;28;20836;-58
2021/11/30 02:33:54;;;;;;;13.60;6.27;;;2.80;1.00;;;;;;5032833;28;21045;-58
2021/11/30 02:36:24;;;;;;;16.17;5.57;;;2.80;1.00;;;;;;5032665;28;20484;-58
2021/11/30 02:38:52;;;;;;;13.83;6.43;;;2.70;1.00;;;;;;5032907;28;21015;-57
2021/11/30 02:41:19;;;;;;;13.03;6.13;;;2.70;1.00;;;;;;5032182;28;20476;-59
2021/11/30 02:43:46;;;;;;;13.70;6.57;;;2.70;1.00;;;;;;5032717;28;20515;-59
2021/11/30 02:46:30;;;;;;;12.30;5.97;;;2.60;1.00;;;;;;5032578;28;20453;-57
2021/11/30 02:48:57;;;;;;;13.77;6.57;;;2.50;1.00;;;;;;5032667;28;20536;-57
2021/11/30 02:51:25;;;;;;;10.77;5.53;;;2.50;1.00;;;;;;5032409;28;20486;-57
2021/11/30 02:53:53;;;;;;;10.77;5.50;;;2.40;1.00;;;;;;5032383;28;20556;-56
2021/11/30 02:56:20;;;;;;;13.00;5.63;;;2.30;1.00;;;;;;5032861;28;20495;-54
2021/11/30 02:58:47;;;;;;;13.03;5.73;;;2.30;1.00;;;;;;5032299;28;20449;-56
2021/11/30 03:01:14;;;;;;;13.37;6.00;;;2.30;1.00;;;;;;5032258;28;20862;-58
2021/11/30 03:03:40;;;;;;;16.27;7.67;;;2.20;1.00;;;;;;5032436;28;20485;-58
2021/11/30 03:06:07;;;;;;;13.27;6.23;;;2.10;1.00;;;;;;5032651;28;20445;-58
2021/11/30 03:08:38;;;;;;;12.87;6.20;;;2.10;1.10;;;;;;5032982;28;20870;-56
2021/11/30 03:11:07;;;;;;;15.00;7.20;;;2.00;50.10;;;;;;5032557;28;20453;-59
2021/11/30 03:13:34;;;;;;;13.70;7.23;;;2.00;93.00;;;;;;5031787;28;20527;-57
2021/11/30 03:16:00;;;;;;;13.87;6.93;;;2.00;99.90;;;;;;5031972;28;20535;-56
2021/11/30 03:18:27;;;;;;;15.20;7.13;;;2.00;99.90;;;;;;5032353;28;20451;-59
2021/11/30 03:20:54;;;;;;;12.23;6.80;;;2.00;99.90;;;;;;5032197;28;20477;-59
2021/11/30 03:23:21;;;;;;;12.90;7.40;;;2.00;99.90;;;;;;5031739;28;20864;-59
2021/11/30 03:25:48;;;;;;;15.33;6.57;;;1.90;99.90;;;;;;5032116;28;20504;-56
2021/11/30 03:28:17;;;;;;;17.27;6.97;;;1.80;99.90;;;;;;5032279;28;20948;-56
2021/11/30 03:30:53;;;;;;;13.53;6.53;;;1.80;99.90;;;;;;5032568;28;20488;-56
2021/11/30 03:36:05;;;;;;;11.30;7.07;;;1.70;99.90;;;;;;5032143;28;20476;-56
2021/11/30 03:38:32;;;;;;;14.27;7.20;;;1.70;99.90;;;;;;5031959;28;20872;-57
2021/11/30 03:40:58;;;;;;;10.43;6.77;;;1.60;99.90;;;;;;5031810;28;20503;-56
2021/11/30 03:43:26;;;;;;;10.17;6.83;;;1.60;99.90;;;;;;5031754;28;20568;-54
2021/11/30 03:45:53;;;;;;;10.60;6.20;;;1.60;99.90;;;;;;5032032;28;20879;-57
2021/11/30 03:48:20;;;;;;;9.07;5.20;;;1.60;99.90;;;;;;5031987;28;20514;-57
2021/11/30 03:50:47;;;;;;;9.73;6.77;;;1.50;99.90;;;;;;5031822;28;20452;-55
2021/11/30 03:53:14;;;;;;;14.10;7.00;;;1.50;99.90;;;;;;5031296;28;20477;-58
2021/11/30 03:55:40;;;;;;;8.53;6.33;;;1.50;99.90;;;;;;5031720;28;20902;-58
2021/11/30 03:58:07;;;;;;;9.20;6.00;;;1.50;99.90;;;;;;5031891;28;20452;-56
2021/11/30 04:00:35;;;;;;;7.87;5.80;;;1.40;99.90;;;;;;5031775;28;20505;-58
2021/11/30 04:03:02;;;;;;;8.87;5.30;;;1.40;99.90;;;;;;5031425;28;20484;-56
2021/11/30 04:05:28;;;;;;;9.43;6.40;;;1.40;99.90;;;;;;5031797;28;20452;-54
2021/11/30 04:07:55;;;;;;;6.03;5.03;;;1.40;99.90;;;;;;5031732;28;20501;-59
2021/11/30 04:10:21;;;;;;;3.03;2.47;;;1.40;99.90;;;;;;5031585;28;20932;-56
2021/11/30 04:12:48;;;;;;;7.60;5.67;;;1.50;99.90;;;;;;5031537;28;20531;-59
2021/11/30 04:15:15;;;;;;;7.90;5.20;;;1.50;99.90;;;;;;5031591;28;20510;-57
2021/11/30 04:17:43;;;;;;;9.30;5.13;;;1.50;99.90;;;;;;5031416;28;20449;-58
2021/11/30 04:20:12;;;;;;;6.33;4.33;;;1.60;99.90;;;;;;5031656;28;20867;-57
2021/11/30 04:22:39;;;;;;;7.37;4.40;;;1.60;99.90;;;;;;5030829;28;21020;-57
2021/11/30 04:25:07;;;;;;;7.67;5.10;;;1.70;99.90;;;;;;5034858;28;20515;-59
2021/11/30 04:27:34;;;;;;;6.87;5.47;;;1.80;99.90;;;;;;5035184;28;20515;-59
2021/11/30 04:30:01;;;;;;;5.20;4.00;;;1.90;99.90;;;;;;5035221;28;20856;-58
2021/11/30 04:32:28;;;;;;;5.17;4.33;;;1.90;99.90;;;;;;5034634;28;20534;-58
2021/11/30 04:34:56;;;;;;;8.23;5.10;;;2.00;99.90;;;;;;5035147;28;20452;-58
2021/11/30 04:37:22;;;;;;;6.33;4.40;;;2.10;99.90;;;;;;5035012;28;20484;-57
2021/11/30 04:39:49;;;;;;;6.40;5.37;;;2.10;99.90;;;;;;5035288;28;20505;-58
2021/11/30 04:42:16;;;;;;;5.53;4.37;;;2.20;99.90;;;;;;5034879;28;20964;-58
2021/11/30 04:44:51;;;;;;;6.80;4.90;;;2.30;99.90;;;;;;5035447;28;20448;-53
2021/11/30 04:47:18;;;;;;;6.47;4.80;;;2.40;1.00;;;;;;5035096;28;20513;-59
2021/11/30 04:49:54;;;;;;;7.07;5.27;;;2.50;1.00;;;;;;5035375;28;20445;-58
2021/11/30 04:52:22;;;;;;;9.10;6.10;;;2.50;1.00;;;;;;5034847;28;20455;-58
2021/11/30 04:54:49;;;;;;;7.07;5.50;;;2.60;1.00;;;;;;5034788;28;20457;-58
2021/11/30 04:57:16;;;;;;;6.80;5.23;;;2.80;1.00;;;;;;5034991;28;21059;-55
2021/11/30 04:59:43;;;;;;;6.40;5.40;;;2.80;1.00;;;;;;5035255;28;20449;-60
2021/11/30 05:02:09;;;;;;;8.00;6.77;;;2.80;1.00;;;;;;5034777;28;20502;-57
2021/11/30 05:04:37;;;;;;;8.73;6.77;;;2.90;1.00;;;;;;5034579;28;20460;-55
2021/11/30 05:07:04;;;;;;;9.03;6.33;;;3.00;1.00;;;;;;5034358;28;20543;-57
2021/11/30 05:09:33;;;;;;;8.30;6.40;;;3.00;1.00;;;;;;5034838;28;20938;-56
2021/11/30 05:11:59;;;;;;;9.73;7.57;;;3.10;1.00;;;;;;5034077;28;20487;-57
2021/11/30 05:14:26;;;;;;;9.07;6.77;;;3.20;1.00;;;;;;5034334;28;20817;-59
2021/11/30 05:16:53;;;;;;;11.27;8.40;;;3.10;1.00;;;;;;5034814;28;20494;-57
2021/11/30 05:19:19;;;;;;;11.83;9.23;;;3.20;1.00;;;;;;5034521;28;20449;-55
2021/11/30 05:21:46;;;;;;;9.43;7.93;;;3.30;1.00;;;;;;5033678;28;20495;-56
2021/11/30 05:24:15;;;;;;;11.37;8.47;;;3.30;1.00;;;;;;5034192;28;20519;-59
2021/11/30 05:26:43;;;;;;;9.97;6.73;;;3.30;1.00;;;;;;5034828;28;20449;-58
2021/11/30 05:29:09;;;;;;;12.50;8.43;;;3.30;1.00;;;;;;5034414;28;20449;-56
2021/11/30 05:31:36;;;;;;;11.27;8.07;;;3.40;1.00;;;;;;5031629;28;20457;-57
2021/11/30 05:34:03;;;;;;;10.93;7.23;;;3.40;1.00;;;;;;5034393;28;20464;-57
2021/11/30 05:36:32;;;;;;;10.30;7.77;;;3.40;1.00;;;;;;5034021;28;20485;-57
2021/11/30 05:38:59;;;;;;;13.97;9.57;;;3.40;1.00;;;;;;5034328;28;20468;-57
2021/11/30 05:41:25;;;;;;;10.63;8.17;;;3.50;1.00;;;;;;5033595;28;20457;-57
2021/11/30 05:43:54;;;;;;;12.57;8.83;;;3.50;1.00;;;;;;5033980;28;20473;-56
2021/11/30 05:46:21;;;;;;;10.73;7.60;;;3.60;1.00;;;;;;5035145;28;20456;-58
2021/11/30 05:48:48;;;;;;;10.40;7.97;;;3.70;1.00;;;;;;5036503;28;20464;-59
2021/11/30 05:51:15;;;;;;;10.90;8.27;;;3.70;1.00;;;;;;5032229;28;20975;-60
2021/11/30 05:53:41;;;;;;;12.87;7.67;;;3.70;1.00;;;;;;5033405;28;20473;-60
2021/11/30 05:56:09;;;;;;;11.03;8.17;;;3.70;1.00;;;;;;5033470;28;20226;-59
2021/11/30 05:58:38;;;;;;;10.67;7.77;;;3.80;1.00;;;;;;5031008;28;20802;-59
2021/11/30 06:01:14;;;;;;;9.37;6.83;;;3.80;1.00;;;;;;5039659;28;20453;-61
2021/11/30 06:03:58;;;;;;;9.00;7.07;;;3.80;1.00;;;;;;5032984;28;20320;-62
2021/11/30 06:06:25;;;;;;;7.60;6.07;;;3.90;1.00;;;;;;5033208;28;20203;-62
2021/11/30 06:08:52;;;;;;;7.83;6.03;;;3.90;1.00;;;;;;5032835;28;20211;-61
2021/11/30 06:11:19;;;;;;;8.40;5.80;;;3.90;1.00;;;;;;5032959;28;20219;-61
2021/11/30 06:13:46;;;;;;;9.13;6.47;;;3.90;1.00;;;;;;5033160;28;20226;-60
2021/11/30 06:16:14;;;;;;;7.40;5.43;;;4.00;1.00;;;;;;5033065;28;20318;-61
2021/11/30 06:18:41;;;;;;;6.60;5.30;;;4.00;1.00;;;;;;5032946;28;20220;-60
2021/11/30 06:21:08;;;;;;;7.63;5.37;;;4.10;1.00;;;;;;5032630;28;20213;-60
2021/11/30 06:23:34;;;;;;;7.03;5.67;;;4.10;1.00;;;;;;5032779;28;20589;-61
2021/11/30 06:26:01;;;;;;;6.30;5.07;;;4.10;1.00;;;;;;5033123;28;20207;-59
2021/11/30 06:28:28;;;;;;;5.40;4.23;;;4.20;1.00;;;;;;5023817;28;20224;-61
2021/11/30 06:30:54;;;;;;;6.00;4.67;;;4.20;1.00;;;;;;5031970;28;20686;-56
2021/11/30 06:33:22;;;;;;;6.37;4.60;;;4.20;1.00;;;;;;5032183;28;20226;-54
2021/11/30 06:35:49;;;;;;;7.80;4.50;;;4.30;1.00;;;;;;5032077;28;20261;-58
2021/11/30 06:38:16;;;;;;;7.37;4.80;;;4.30;1.00;;;;;;5038319;28;20238;-58
2021/11/30 06:40:42;;;;;;;5.47;3.93;;;4.30;1.00;;;;;;5052423;28;20671;-58
2021/11/30 06:43:10;;;;;;;7.03;4.53;;;4.40;1.00;;;;;;5052141;28;20233;-58
2021/11/30 06:45:36;;;;;;;4.43;3.03;;;4.40;1.00;;;;;;5052372;28;20558;-57
2021/11/30 06:48:03;;;;;;;5.33;4.30;;;4.40;1.00;;;;;;5050758;28;20254;-57
2021/11/30 06:50:31;;;;;;;6.30;4.57;;;4.40;1.00;;;;;;5042253;28;20233;-57
2021/11/30 06:52:58;;;;;;;6.30;5.10;;;4.50;1.00;;;;;;5031664;28;20239;-55
2021/11/30 06:55:25;;;;;;;6.50;5.10;;;4.50;1.00;;;;;;5032099;28;20550;-55
2021/11/30 06:57:51;;;;;;;6.03;4.80;;;4.50;1.00;;;;;;5031991;28;20228;-58
2021/11/30 07:00:22;;;;;;;6.43;5.10;;;4.50;1.00;;;;;;5031704;28;20215;-57
2021/11/30 07:02:50;;;;;;;8.10;5.83;;;4.60;1.00;;;;;;5031377;28;20324;-58
2021/11/30 07:05:19;;;;;;;7.80;5.80;;;4.60;1.00;;;;;;5031968;28;20308;-58
2021/11/30 07:07:56;;;;;;;7.63;5.93;;;4.60;1.00;;;;;;5031868;28;20206;-58
2021/11/30 07:10:35;;;;;;;6.83;4.73;;;4.70;1.00;;;;;;5031698;28;20215;-58
2021/11/30 07:13:15;;;;;;;6.80;5.57;;;4.70;1.00;;;;;;5031749;28;20224;-54
2021/11/30 07:15:43;;;;;;;5.40;4.20;;;4.80;1.00;;;;;;5032143;28;20235;-59
2021/11/30 07:18:11;;;;;;;7.63;5.47;;;4.80;1.00;;;;;;5031754;28;20232;-57
2021/11/30 07:20:38;;;;;;;9.73;7.07;;;4.80;5.90;;;;;;5048245;28;20261;-57
2021/11/30 07:23:07;;;;;;;11.07;7.13;;;4.90;13.80;;;;;;5050865;28;20232;-58
2021/11/30 07:25:34;;;;;;;8.57;6.67;;;4.90;16.80;;;;;;5051502;28;20212;-60
2021/11/30 07:28:01;;;;;;;6.20;4.23;;;5.00;24.90;;;;;;5049699;28;20208;-59
2021/11/30 07:30:28;;;;;;;8.80;6.70;;;5.00;29.00;;;;;;5031537;28;20221;-60
2021/11/30 07:32:55;;;;;;;9.97;7.53;;;5.10;32.70;;;;;;5031455;28;20232;-57
2021/11/30 07:35:25;;;;;;;8.53;6.83;;;5.20;39.70;;;;;;5031412;28;20220;-58
2021/11/30 07:37:52;;;;;;;9.00;6.00;;;5.20;44.30;;;;;;5031180;28;20313;-58
2021/11/30 07:40:20;;;;;;;10.47;7.70;;;5.20;48.90;;;;;;5031094;28;20693;-60
2021/11/30 07:42:47;;;;;;;12.20;8.37;;;5.30;52.40;;;;;;5031385;28;20879;-58
2021/11/30 07:45:16;;;;;;;12.63;9.03;;;5.30;58.30;;;;;;5031340;28;20213;-54
2021/11/30 07:47:43;;;;;;;13.87;8.30;;;5.40;64.00;;;;;;5031649;28;20205;-54
2021/11/30 07:50:11;;;;;;;14.60;9.20;;;5.40;67.80;;;;;;5031259;28;20263;-58
2021/11/30 07:52:40;;;;;;;13.57;10.07;;;5.50;90.90;;;;;;5031061;28;20244;-59
2021/11/30 07:55:12;;;;;;;14.90;11.30;;;5.50;92.40;;;;;;5031353;28;20209;-59
2021/11/30 07:57:41;;;;;;;14.80;10.40;;;5.60;93.70;;;;;;5031168;28;20232;-61
2021/11/30 08:00:11;;;;;;;16.87;11.37;;;5.60;95.00;;;;;;5034824;28;20209;-61
2021/11/30 08:02:37;;;;;;;17.80;12.27;;;5.60;98.00;;;;;;5034921;28;20248;-61
2021/11/30 08:05:05;;;;;;;15.83;11.60;;;5.70;99.90;;;;;;5035342;28;20263;-60
2021/11/30 08:07:32;;;;;;;15.43;11.73;;;5.80;99.90;;;;;;5035219;28;20205;-60
2021/11/30 08:09:59;;;;;;;15.80;11.50;;;5.80;99.90;;;;;;5035389;28;20213;-60
2021/11/30 08:12:26;;;;;;;16.60;12.00;;;5.80;99.90;;;;;;5035067;28;20233;-58
2021/11/30 08:14:54;;;;;;;17.30;12.77;;;5.90;99.90;;;;;;5035116;28;20213;-57
2021/11/30 08:17:21;;;;;;;16.30;11.60;;;5.90;99.90;;;;;;5034995;28;20233;-59
2021/11/30 08:19:48;;;;;;;17.70;12.13;;;5.90;99.90;;;;;;5034542;28;20217;-60
2021/11/30 08:22:15;;;;;;;15.97;11.60;;;6.00;99.90;;;;;;5034153;28;20959;-60
2021/11/30 08:24:43;;;;;;;16.50;12.03;;;6.00;99.90;;;;;;5035107;28;20598;-60
2021/11/30 08:27:11;;;;;;;11.77;8.20;;;6.10;99.90;;;;;;5034733;28;20213;-60
2021/11/30 08:29:39;;;;;;;10.93;7.80;;;6.10;99.90;;;;;;5034568;28;20217;-60
2021/11/30 08:32:09;;;;;;;14.60;11.37;;;6.20;99.90;;;;;;5033865;28;20210;-60
2021/11/30 08:34:36;;;;;;;17.37;11.77;;;6.20;99.90;;;;;;5034444;28;20206;-60
2021/11/30 08:37:03;;;;;;;11.60;9.10;;;6.20;99.90;;;;;;5034569;28;20229;-60
2021/11/30 08:39:30;;;;;;;12.40;10.17;;;6.20;99.90;;;;;;5034460;28;20210;-61
2021/11/30 08:41:57;;;;;;;13.17;10.97;;;6.30;99.90;;;;;;5034097;28;20212;-60
2021/11/30 08:44:24;;;;;;;11.93;10.17;;;6.30;99.90;;;;;;5034202;28;20322;-60
2021/11/30 08:46:51;;;;;;;12.13;9.27;;;6.30;99.90;;;;;;5034864;28;20214;-61
2021/11/30 08:49:19;;;;;;;10.97;9.30;;;6.40;99.90;;;;;;5033880;28;20213;-62
2021/11/30 08:51:46;;;;;;;11.00;9.50;;;6.40;99.90;;;;;;5034630;28;20256;-60
2021/11/30 08:54:12;;;;;;;11.50;9.37;;;6.40;99.90;;;;;;5034594;28;20222;-59
2021/11/30 08:56:39;;;;;;;10.87;8.53;;;6.50;99.90;;;;;;5033947;28;20214;-59
2021/11/30 08:59:06;;;;;;;10.53;8.60;;;6.50;99.90;;;;;;5034004;28;20564;-59
2021/11/30 09:01:32;;;;;;;11.40;8.40;;;6.50;99.90;;;;;;5033562;28;20214;-61
2021/11/30 09:03:59;;;;;;;10.40;8.83;;;6.50;99.90;;;;;;5033924;28;20248;-61
2021/11/30 09:06:27;;;;;;;10.20;8.33;;;6.50;99.90;;;;;;5034132;28;20202;-60
2021/11/30 09:08:54;;;;;;;5.70;4.63;;;6.60;99.90;;;;;;5034184;28;20198;-61
2021/11/30 09:11:22;;;;;;;9.43;6.73;;;6.60;99.90;;;;;;5032914;28;20627;-59
2021/11/30 09:13:50;;;;;;;10.03;8.10;;;6.60;99.90;;;;;;5033786;28;20729;-60
2021/11/30 09:16:17;;;;;;;11.93;8.03;;;6.60;99.90;;;;;;5033636;28;20218;-60
2021/11/30 09:18:44;;;;;;;8.50;5.30;;;6.70;99.90;;;;;;5034094;28;20647;-59
2021/11/30 09:21:11;;;;;;;8.20;6.17;;;6.70;99.90;;;;;;5033670;28;20210;-59
2021/11/30 09:23:39;;;;;;;11.70;9.07;;;6.70;99.90;;;;;;5033906;28;20226;-57
2021/11/30 09:26:06;;;;;;;9.40;7.50;;;6.70;99.90;;;;;;5033679;28;20228;-58
2021/11/30 09:28:32;;;;;;;8.47;6.93;;;6.70;99.90;;;;;;5033320;28;20202;-59
2021/11/30 09:30:59;;;;;;;9.90;6.80;;;6.80;99.90;;;;;;5033360;28;20693;-61
2021/11/30 09:33:26;;;;;;;9.13;7.60;;;6.80;99.90;;;;;;5033529;28;20226;-62
2021/11/30 09:35:53;;;;;;;10.10;8.00;;;6.80;99.90;;;;;;5033633;28;20211;-58
2021/11/30 09:38:19;;;;;;;8.73;6.87;;;6.80;99.90;;;;;;5033317;28;20230;-59
2021/11/30 09:40:49;;;;;;;8.17;6.60;;;6.80;99.90;;;;;;5033878;28;20272;-58
2021/11/30 09:43:15;;;;;;;7.83;6.77;;;6.90;99.90;;;;;;5032687;28;20760;-59
2021/11/30 09:45:42;;;;;;;9.13;7.07;;;6.90;99.90;;;;;;5033827;28;20280;-61
2021/11/30 09:48:11;;;;;;;8.07;6.70;;;6.90;99.90;;;;;;5032497;28;20212;-59
2021/11/30 09:50:39;;;;;;;9.93;7.17;;;6.90;99.10;;;;;;5033429;28;20242;-58
2021/11/30 09:53:07;;;;;;;9.93;7.87;;;6.90;95.10;;;;;;5032831;28;20253;-58
2021/11/30 09:55:36;;;;;;;9.53;7.97;;;6.90;99.90;;;;;;5033069;28;20675;-58
2021/11/30 09:58:04;;;;;;;10.07;8.27;;;6.90;93.90;;;;;;5032370;28;20738;-60
2021/11/30 10:00:33;;;;;;;9.73;8.27;;;7.00;94.40;;;;;;5032859;28;20210;-59
2021/11/30 10:03:00;;;;;;;8.73;6.93;;;7.00;90.90;;;;;;5032628;28;20238;-60
2021/11/30 10:05:30;;;;;;;9.17;7.27;;;7.00;91.40;;;;;;5032935;28;20210;-63
2021/11/30 10:08:00;;;;;;;10.30;8.37;;;7.00;91.30;;;;;;5032937;28;20202;-60
2021/11/30 10:10:30;;;;;;;10.10;8.70;;;7.00;91.40;;;;;;5032900;28;20233;-60
2021/11/30 10:13:12;;;;;;;9.53;8.33;;;7.00;92.40;;;;;;5032936;28;20222;-61
2021/11/30 10:15:58;;;;;;;8.73;7.20;;;7.10;94.00;;;;;;5032863;28;20225;-59
2021/11/30 10:18:26;;;;;;;9.00;7.13;;;7.00;95.20;;;;;;5032389;28;20225;-55
2021/11/30 10:20:57;;;;;;;7.70;6.70;;;7.10;98.10;;;;;;5032558;28;20588;-59
2021/11/30 10:23:25;;;;;;;8.50;6.30;;;7.10;98.40;;;;;;5032232;28;20234;-59
2021/11/30 10:25:53;;;;;;;7.23;6.37;;;7.10;99.90;;;;;;5032849;28;20207;-58
2021/11/30 10:28:27;;;;;;;5.80;5.20;;;7.10;99.90;;;;;;5032251;28;20209;-59
2021/11/30 10:30:54;;;;;;;7.67;6.03;;;7.20;99.90;;;;;;5032298;28;20226;-60
2021/11/30 10:33:24;;;;;;;7.20;6.33;;;7.20;99.90;;;;;;5031630;28;20234;-61
2021/11/30 10:35:54;;;;;;;6.10;4.57;;;7.20;99.90;;;;;;5032643;28;20202;-59
2021/11/30 10:38:22;;;;;;;5.83;4.93;;;7.20;99.90;;;;;;5032006;28;20233;-59
2021/11/30 10:40:49;;;;;;;5.80;4.30;;;7.30;99.90;;;;;;5031124;28;20238;-60
2021/11/30 10:43:17;;;;;;;6.03;5.23;;;7.30;99.90;;;;;;5031643;28;20292;-58
2021/11/30 10:45:47;;;;;;;5.20;4.70;;;7.30;99.90;;;;;;5031707;28;20859;-59
2021/11/30 10:48:16;;;;;;;6.97;5.20;;;7.40;99.90;;;;;;5031937;28;20207;-58
2021/11/30 10:50:44;;;;;;;6.63;5.47;;;7.40;99.90;;;;;;5032072;28;20584;-60
2021/11/30 10:53:20;;;;;;;7.13;4.80;;;7.40;99.90;;;;;;5031637;28;20222;-58
2021/11/30 10:55:50;;;;;;;6.87;5.63;;;7.40;99.90;;;;;;5032109;28;20210;-57
2021/11/30 10:58:18;;;;;;;6.37;5.73;;;7.50;99.90;;;;;;5031280;28;20226;-55
2021/11/30 11:00:46;;;;;;;6.27;4.80;;;7.50;99.90;;;;;;5032171;28;20210;-55
2021/11/30 11:03:17;;;;;;;7.10;5.43;;;7.50;99.90;;;;;;5031535;28;20234;-60
2021/11/30 11:05:47;;;;;;;6.70;5.50;;;7.60;99.90;;;;;;5032115;28;20210;-58
2021/11/30 11:08:16;;;;;;;5.97;5.07;;;7.60;99.90;;;;;;5031685;28;20208;-58
2021/11/30 11:10:46;;;;;;;9.30;5.90;;;7.60;99.90;;;;;;5031966;28;20207;-60
2021/11/30 11:13:24;;;;;;;6.07;5.13;;;7.70;99.90;;;;;;5031780;28;20239;-56
2021/11/30 11:15:53;;;;;;;6.13;5.07;;;7.70;99.90;;;;;;5032184;28;20607;-60
2021/11/30 11:18:22;;;;;;;7.83;5.30;;;7.70;99.90;;;;;;5031925;28;20231;-59
2021/11/30 11:20:49;;;;;;;6.30;4.93;;;7.70;99.90;;;;;;5031393;28;20262;-61
2021/11/30 11:23:26;;;;;;;6.70;4.73;;;7.80;99.90;;;;;;5031147;28;20232;-62
2021/11/30 11:25:54;;;;;;;6.27;4.90;;;7.80;99.90;;;;;;5032158;28;20221;-62
2021/11/30 11:28:22;;;;;;;6.13;5.30;;;7.80;99.90;;;;;;5031864;28;20237;-60
2021/11/30 11:30:50;;;;;;;4.87;4.37;;;7.80;99.90;;;;;;5032142;28;20207;-60
2021/11/30 11:33:18;;;;;;;5.67;4.90;;;7.90;99.90;;;;;;5031029;28;20606;-58
2021/11/30 11:35:45;;;;;;;4.73;4.07;;;7.90;99.90;;;;;;5031708;28;20208;-57
2021/11/30 11:38:13;;;;;;;5.47;4.90;;;7.90;99.90;;;;;;5031035;28;20264;-57
2021/11/30 11:40:40;;;;;;;5.90;5.10;;;7.90;99.90;;;;;;5031526;28;20640;-57
2021/11/30 11:43:08;;;;;;;7.80;3.47;;;8.00;99.90;;;;;;5030837;28;20231;-57
2021/11/30 11:45:34;;;;;;;5.40;4.27;;;8.00;99.90;;;;;;5031399;28;20211;-58
2021/11/30 11:48:06;;;;;;;6.13;4.43;;;8.00;99.90;;;;;;5031264;28;20203;-55
2021/11/30 11:50:55;;;;;;;5.53;4.40;;;8.00;99.90;;;;;;5031096;28;20274;-55
2021/11/30 11:53:27;;;;;;;6.87;5.63;;;8.00;99.90;;;;;;5025037;28;20231;-56
2021/11/30 11:56:16;;;;;;;4.53;3.60;;;8.00;99.90;;;;;;5031546;28;20219;-57
2021/11/30 11:58:44;;;;;;;3.50;2.60;;;8.00;99.90;;;;;;5030848;28;20223;-57
2021/11/30 12:01:20;;;;;;;3.00;2.70;;;8.00;99.90;;;;;;5030737;28;20209;-55
2021/11/30 12:04:01;;;;;;;13.10;3.03;;;7.90;99.90;;;;;;5031113;28;20240;-56
2021/11/30 12:06:31;;;;;;;3.40;2.63;;;7.90;99.90;;;;;;5030940;28;20692;-56
2021/11/30 12:09:14;;;;;;;4.27;2.87;;;7.90;99.90;;;;;;5031022;28;20817;-54
2021/11/30 12:11:42;;;;;;;4.70;3.23;;;7.90;99.90;;;;;;5030815;28;20207;-55
2021/11/30 12:14:14;;;;;;;5.27;4.00;;;7.80;99.90;;;;;;5030840;28;20226;-56
2021/11/30 12:17:21;;;;;;;6.70;4.60;;;7.80;99.90;;;;;;5030852;28;20202;-53
2021/11/30 12:19:50;;;;;;;6.33;4.80;;;7.80;99.90;;;;;;5030961;28;20231;-57
2021/11/30 12:22:48;;;;;;;6.13;4.70;;;7.70;99.90;;;;;;5030730;28;20216;-54
2021/11/30 12:25:32;;;;;;;6.47;4.63;;;7.70;99.90;;;;;;5031197;28;20238;-58
2021/11/30 12:28:00;;;;;;;6.83;3.40;;;7.70;99.90;;;;;;5030517;28;20210;-59
2021/11/30 12:30:43;;;;;;;4.70;3.73;;;7.70;99.90;;;;;;5031114;28;20218;-59
2021/11/30 12:33:17;;;;;;;4.17;2.90;;;7.70;99.90;;;;;;5030756;28;20237;-58
2021/11/30 12:35:50;;;;;;;3.97;2.67;;;7.70;99.90;;;;;;5031176;28;20206;-60
2021/11/30 12:38:21;;;;;;;2.90;1.93;;;7.70;99.90;;;;;;5030426;28;20234;-58
2021/11/30 12:40:49;;;;;;;2.23;2.00;;;7.80;99.90;;;;;;5031202;28;20218;-59
2021/11/30 12:43:22;;;;;;;2.40;1.80;;;7.80;99.90;;;;;;5030607;28;20597;-58
2021/11/30 12:45:52;;;;;;;2.00;1.80;;;7.70;99.90;;;;;;5033570;28;20230;-58
2021/11/30 12:48:23;;;;;;;3.50;1.80;;;7.80;99.90;;;;;;5034248;28;20640;-59
2021/11/30 12:50:57;;;;;;;3.03;1.80;;;7.70;99.90;;;;;;5034206;28;20725;-57
2021/11/30 12:53:40;;;;;;;2.63;1.90;;;7.70;99.90;;;;;;5034092;28;20232;-57
2021/11/30 12:56:06;;;;;;;2.67;1.70;;;7.80;99.90;;;;;;5034438;28;20631;-59
2021/11/30 12:58:45;;;;;;;2.47;1.87;;;7.70;99.90;;;;;;5033503;28;20223;-59
2021/11/30 13:01:21;;;;;;;2.50;1.80;;;7.70;99.90;;;;;;5033542;28;20579;-57
2021/11/30 13:03:49;;;;;;;1.80;1.30;;;7.70;99.90;;;;;;5034567;28;20234;-56
2021/11/30 13:06:18;;;;;;;3.30;2.03;;;7.70;99.90;;;;;;5034057;28;20265;-58